createdAt,value
2022-11-25T00:01:11.948Z,0.30
2022-11-25T00:03:39.904Z,0.20
2022-11-25T00:06:20.199Z,0.20
2022-11-25T00:08:49.567Z,0.20
2022-11-25T00:11:17.814Z,0.10
2022-11-25T00:13:46.027Z,0.20
2022-11-25T00:16:18.343Z,0.20
2022-11-25T00:18:46.707Z,0.20
2022-11-25T00:21:15.757Z,0.20
2022-11-25T00:23:42.941Z,0.10
2022-11-25T00:26:19.078Z,0.10
2022-11-25T00:28:47.037Z,0.10
2022-11-25T00:31:22.616Z,0.20
2022-11-25T00:33:49.819Z,0.10
2022-11-25T00:36:36.785Z,0.10
2022-11-25T00:39:24.812Z,0.00
2022-11-25T00:42:10.030Z,0.10
2022-11-25T00:44:38.063Z,0.10
2022-11-25T00:47:11.447Z,0.10
2022-11-25T00:49:39.800Z,0.10
2022-11-25T00:52:09.921Z,0.10
2022-11-25T00:54:37.133Z,0.10
2022-11-25T00:57:04.055Z,0.10
2022-11-25T00:59:30.843Z,0.10
2022-11-25T01:01:57.693Z,0.00
2022-11-25T01:04:24.610Z,0.00
2022-11-25T01:06:51.374Z,0.00
2022-11-25T01:09:18.113Z,0.00
2022-11-25T01:11:44.812Z,0.10
2022-11-25T01:14:12.066Z,0.10
2022-11-25T01:16:38.835Z,0.10
2022-11-25T01:19:05.712Z,0.10
2022-11-25T01:21:33.872Z,0.10
2022-11-25T01:24:02.729Z,0.10
2022-11-25T01:26:29.943Z,0.20
2022-11-25T01:28:59.448Z,0.20
2022-11-25T01:31:28.925Z,0.20
2022-11-25T01:34:01.706Z,0.20
2022-11-25T01:36:29.004Z,0.30
2022-11-25T01:38:59.187Z,0.30
2022-11-25T01:41:28.658Z,0.30
2022-11-25T01:44:05.992Z,0.30
2022-11-25T01:46:47.791Z,0.30
2022-11-25T01:49:23.587Z,0.30
2022-11-25T01:51:55.890Z,0.20
2022-11-25T01:54:25.954Z,0.30
2022-11-25T01:57:06.477Z,0.40
2022-11-25T01:59:35.863Z,0.40
2022-11-25T02:02:02.851Z,0.40
2022-11-25T02:04:34.376Z,0.40
2022-11-25T02:07:08.048Z,0.40
2022-11-25T02:09:37.401Z,0.30
2022-11-25T02:12:04.906Z,0.40
2022-11-25T02:14:31.551Z,0.40
2022-11-25T02:17:01.590Z,0.40
2022-11-25T02:20:07.201Z,0.40
2022-11-25T02:22:52.169Z,0.40
2022-11-25T02:25:39.529Z,0.40
2022-11-25T02:28:08.898Z,0.40
2022-11-25T02:30:36.234Z,0.30
2022-11-25T02:33:03.346Z,0.40
2022-11-25T02:35:36.448Z,0.30
2022-11-25T02:38:12.293Z,0.30
2022-11-25T02:40:50.121Z,0.30
2022-11-25T02:43:17.367Z,0.30
2022-11-25T02:46:06.298Z,0.30
2022-11-25T02:49:06.889Z,0.20
2022-11-25T02:51:23.780Z,0.20
2022-11-25T02:53:51.244Z,0.20
2022-11-25T02:56:20.030Z,0.20
2022-11-25T02:58:46.704Z,0.20
2022-11-25T03:01:13.482Z,0.20
2022-11-25T03:03:40.428Z,0.20
2022-11-25T03:06:07.562Z,0.20
2022-11-25T03:08:34.443Z,0.10
2022-11-25T03:11:01.147Z,0.10
2022-11-25T03:13:28.227Z,0.10
2022-11-25T03:15:54.848Z,0.10
2022-11-25T03:18:21.472Z,0.20
2022-11-25T03:20:52.599Z,0.10
2022-11-25T03:23:20.078Z,0.10
2022-11-25T03:25:46.857Z,0.10
2022-11-25T03:28:14.035Z,0.10
2022-11-25T03:30:41.036Z,0.20
2022-11-25T03:33:07.662Z,0.20
2022-11-25T03:35:34.494Z,0.20
2022-11-25T03:38:01.250Z,0.10
2022-11-25T03:40:27.932Z,0.10
2022-11-25T03:42:54.739Z,0.00
2022-11-25T03:45:21.479Z,0.10
2022-11-25T03:47:48.189Z,0.10
2022-11-25T03:50:15.598Z,0.10
2022-11-25T03:52:42.490Z,0.10
2022-11-25T03:55:12.942Z,0.10
2022-11-25T03:57:40.389Z,0.10
2022-11-25T04:00:08.179Z,0.10
2022-11-25T04:02:34.954Z,0.20
2022-11-25T04:05:03.172Z,0.20
2022-11-25T04:07:30.175Z,0.30
2022-11-25T04:09:56.943Z,0.20
2022-11-25T04:12:42.528Z,0.20
2022-11-25T04:15:09.517Z,0.10
2022-11-25T04:17:36.262Z,0.20
2022-11-25T04:20:04.150Z,0.10
2022-11-25T04:22:30.904Z,0.10
2022-11-25T04:24:57.545Z,0.20
2022-11-25T04:27:24.403Z,0.10
2022-11-25T04:29:51.102Z,0.10
2022-11-25T04:32:17.917Z,0.10
2022-11-25T04:34:44.583Z,0.10
2022-11-25T04:37:11.331Z,0.20
2022-11-25T04:39:37.993Z,0.30
2022-11-25T04:42:23.295Z,0.30
2022-11-25T04:45:07.541Z,0.30
2022-11-25T04:47:36.938Z,0.30
2022-11-25T04:50:06.226Z,0.30
2022-11-25T04:52:33.805Z,0.30
2022-11-25T04:55:00.982Z,0.30
2022-11-25T04:57:27.874Z,0.20
2022-11-25T04:59:54.502Z,0.20
2022-11-25T05:02:26.902Z,0.10
2022-11-25T05:04:56.647Z,0.10
2022-11-25T05:07:25.074Z,0.10
2022-11-25T05:09:52.003Z,0.10
2022-11-25T05:12:22.133Z,0.00
2022-11-25T05:14:49.248Z,0.00
2022-11-25T05:17:18.718Z,0.00
2022-11-25T05:19:46.120Z,0.00
2022-11-25T05:22:14.867Z,0.00
2022-11-25T05:24:41.869Z,-0.10
2022-11-25T05:27:09.204Z,-0.20
2022-11-25T05:29:36.193Z,-0.20
2022-11-25T05:32:02.994Z,-0.20
2022-11-25T05:34:29.804Z,-0.30
2022-11-25T05:36:56.811Z,-0.30
2022-11-25T05:39:23.757Z,-0.20
2022-11-25T05:41:50.457Z,-0.20
2022-11-25T05:44:22.664Z,-0.20
2022-11-25T05:46:50.229Z,-0.20
2022-11-25T05:49:18.137Z,-0.20
2022-11-25T05:51:45.271Z,-0.10
2022-11-25T05:54:12.527Z,-0.20
2022-11-25T05:56:39.432Z,-0.30
2022-11-25T05:59:06.344Z,-0.20
2022-11-25T06:01:33.586Z,-0.20
2022-11-25T06:04:04.975Z,-0.20
2022-11-25T06:06:32.155Z,-0.30
2022-11-25T06:08:59.282Z,-0.40
2022-11-25T06:11:26.059Z,-0.40
2022-11-25T06:13:52.868Z,-0.40
2022-11-25T06:16:22.182Z,-0.40
2022-11-25T06:18:49.682Z,-0.50
2022-11-25T06:21:17.018Z,-0.50
2022-11-25T06:23:45.503Z,-0.40
2022-11-25T06:26:19.783Z,-0.50
2022-11-25T06:28:47.219Z,-0.40
2022-11-25T06:31:19.458Z,-0.50
2022-11-25T06:33:54.895Z,-0.50
2022-11-25T06:36:22.793Z,-0.40
2022-11-25T06:38:52.426Z,-0.40
2022-11-25T06:41:19.997Z,-0.40
2022-11-25T06:43:46.739Z,-0.50
2022-11-25T06:46:24.505Z,-0.40
2022-11-25T06:48:55.188Z,-0.50
2022-11-25T06:51:22.138Z,-0.50
2022-11-25T06:53:48.947Z,-0.50
2022-11-25T06:56:18.685Z,-0.50
2022-11-25T06:58:46.356Z,-0.40
2022-11-25T07:01:15.684Z,-0.50
2022-11-25T07:03:44.032Z,-0.50
2022-11-25T07:06:13.544Z,-0.50
2022-11-25T07:08:40.677Z,-0.40
2022-11-25T07:11:21.154Z,-0.30
2022-11-25T07:13:48.528Z,-0.40
2022-11-25T07:16:15.565Z,-0.30
2022-11-25T07:18:42.455Z,-0.30
2022-11-25T07:21:12.480Z,-0.20
2022-11-25T07:23:40.533Z,-0.20
2022-11-25T07:26:13.175Z,-0.10
2022-11-25T07:28:40.405Z,-0.10
2022-11-25T07:31:27.711Z,-0.10
2022-11-25T07:33:57.860Z,0.00
2022-11-25T07:36:25.251Z,0.00
2022-11-25T07:38:52.182Z,0.00
2022-11-25T07:41:21.958Z,0.10
2022-11-25T07:43:51.597Z,0.20
2022-11-25T07:46:27.099Z,0.20
2022-11-25T07:48:56.690Z,0.40
2022-11-25T07:51:38.248Z,0.30
2022-11-25T07:54:07.126Z,0.30
2022-11-25T07:56:35.746Z,0.40
2022-11-25T07:59:02.954Z,0.40
2022-11-25T08:01:29.946Z,0.40
2022-11-25T08:03:56.963Z,0.50
2022-11-25T08:06:26.447Z,0.50
2022-11-25T08:08:55.590Z,0.60
2022-11-25T08:11:31.090Z,0.60
2022-11-25T08:13:58.880Z,0.60
2022-11-25T08:16:28.038Z,0.60
2022-11-25T08:18:55.616Z,0.60
2022-11-25T08:21:22.488Z,0.70
2022-11-25T08:23:49.306Z,0.70
2022-11-25T08:26:22.346Z,0.80
2022-11-25T08:28:49.958Z,0.90
2022-11-25T08:31:26.346Z,0.90
2022-11-25T08:33:55.019Z,1.00
2022-11-25T08:36:22.696Z,1.00
2022-11-25T08:38:52.086Z,1.10
2022-11-25T08:41:28.777Z,1.10
2022-11-25T08:43:57.162Z,1.20
2022-11-25T08:46:27.050Z,1.30
2022-11-25T08:48:54.358Z,1.40
2022-11-25T08:51:25.074Z,1.40
2022-11-25T08:53:53.095Z,1.50
2022-11-25T08:56:25.783Z,1.50
2022-11-25T08:58:54.601Z,1.70
2022-11-25T09:01:22.988Z,1.80
2022-11-25T09:03:53.421Z,2.00
2022-11-25T09:06:20.826Z,2.10
2022-11-25T09:08:49.637Z,2.30
2022-11-25T09:11:17.153Z,2.40
2022-11-25T09:13:44.345Z,2.50
2022-11-25T09:16:11.571Z,2.50
2022-11-25T09:18:39.883Z,2.60
2022-11-25T09:21:13.119Z,2.60
2022-11-25T09:23:40.235Z,2.60
2022-11-25T09:26:08.252Z,2.70
2022-11-25T09:28:36.659Z,2.70
2022-11-25T09:31:08.289Z,2.80
2022-11-25T09:33:35.304Z,2.80
2022-11-25T09:36:02.736Z,2.90
2022-11-25T09:38:29.705Z,2.90
2022-11-25T09:41:43.875Z,3.00
2022-11-25T09:45:00.476Z,3.20
2022-11-25T09:48:04.408Z,3.30
2022-11-25T09:50:31.604Z,3.20
2022-11-25T09:53:22.858Z,3.30
2022-11-25T09:55:55.880Z,3.30
2022-11-25T09:58:46.667Z,3.40
2022-11-25T10:01:18.564Z,3.50
2022-11-25T10:04:10.500Z,3.50
2022-11-25T10:06:53.645Z,3.70
2022-11-25T10:09:26.156Z,3.80
2022-11-25T10:12:04.012Z,3.90
2022-11-25T10:14:51.756Z,4.00
2022-11-25T10:17:40.103Z,4.10
2022-11-25T10:20:28.165Z,4.10
2022-11-25T10:23:00.268Z,4.20
2022-11-25T10:25:35.015Z,4.40
2022-11-25T10:28:21.406Z,4.40
2022-11-25T10:31:18.876Z,4.60
2022-11-25T10:33:50.312Z,4.70
2022-11-25T10:36:23.599Z,4.90
2022-11-25T10:39:41.905Z,5.30
2022-11-25T10:42:22.433Z,5.50
2022-11-25T10:44:49.403Z,5.60
2022-11-25T10:47:51.412Z,5.60
2022-11-25T10:50:21.569Z,5.60
2022-11-25T10:53:11.162Z,5.60
2022-11-25T10:55:38.128Z,5.60
2022-11-25T10:58:38.105Z,5.60
2022-11-25T11:01:14.487Z,5.60
2022-11-25T11:03:45.907Z,5.50
2022-11-25T11:06:44.585Z,5.60
2022-11-25T11:09:39.036Z,5.60
2022-11-25T11:12:25.825Z,5.70
2022-11-25T11:15:12.552Z,5.70
2022-11-25T11:17:41.220Z,5.60
2022-11-25T11:20:08.325Z,5.60
2022-11-25T11:22:37.271Z,5.60
2022-11-25T11:25:28.977Z,5.70
2022-11-25T11:27:56.194Z,5.70
2022-11-25T11:30:29.651Z,5.70
2022-11-25T11:33:00.549Z,5.70
2022-11-25T11:35:42.640Z,5.80
2022-11-25T11:38:32.747Z,5.80
2022-11-25T11:41:46.864Z,5.90
2022-11-25T11:44:35.503Z,6.00
2022-11-25T11:47:30.268Z,6.00
2022-11-25T11:50:24.986Z,6.10
2022-11-25T11:52:58.093Z,6.10
2022-11-25T11:56:00.232Z,6.10
2022-11-25T11:58:45.540Z,6.10
2022-11-25T12:01:29.365Z,6.10
2022-11-25T12:04:00.850Z,6.10
2022-11-25T12:06:31.596Z,6.10
2022-11-25T12:09:07.057Z,6.10
2022-11-25T12:11:40.632Z,6.10
2022-11-25T12:14:14.705Z,6.20
2022-11-25T12:17:02.468Z,6.10
2022-11-25T12:19:43.879Z,6.10
2022-11-25T12:22:18.790Z,6.20
2022-11-25T12:25:06.230Z,6.30
2022-11-25T12:27:44.247Z,6.30
2022-11-25T12:30:20.677Z,6.30
2022-11-25T12:33:14.692Z,6.30
2022-11-25T12:35:50.011Z,6.40
2022-11-25T12:38:41.819Z,6.40
2022-11-25T12:41:26.971Z,6.50
2022-11-25T12:44:17.738Z,6.50
2022-11-25T12:46:47.239Z,6.60
2022-11-25T12:49:24.680Z,6.60
2022-11-25T12:52:00.175Z,6.60
2022-11-25T12:54:46.030Z,6.70
2022-11-25T12:57:42.023Z,6.80
2022-11-25T13:03:29.781Z,6.80
2022-11-25T13:06:26.829Z,6.80
2022-11-25T13:09:08.621Z,6.80
2022-11-25T13:12:11.443Z,6.80
2022-11-25T13:14:53.749Z,6.80
2022-11-25T13:17:22.278Z,6.80
2022-11-25T13:19:49.410Z,6.80
2022-11-25T13:22:21.649Z,6.80
2022-11-25T13:24:48.398Z,6.80
2022-11-25T13:27:53.456Z,6.80
2022-11-25T13:30:32.109Z,6.80
2022-11-25T13:33:18.782Z,6.80
2022-11-25T13:35:55.925Z,6.90
2022-11-25T13:38:48.802Z,6.90
2022-11-25T13:41:22.678Z,6.90
2022-11-25T13:44:05.767Z,6.90
2022-11-25T13:46:48.396Z,6.90
2022-11-25T13:49:26.802Z,6.90
2022-11-25T13:51:56.535Z,7.00
2022-11-25T13:54:31.537Z,7.00
2022-11-25T13:57:13.161Z,7.00
2022-11-25T13:59:42.987Z,7.10
2022-11-25T14:02:28.320Z,7.10
2022-11-25T14:05:21.477Z,7.10
2022-11-25T14:08:07.989Z,7.10
2022-11-25T14:10:55.563Z,7.20
2022-11-25T14:13:40.349Z,7.20
2022-11-25T14:16:19.109Z,7.20
2022-11-25T14:22:04.137Z,7.20
2022-11-25T14:24:43.702Z,7.20
2022-11-25T14:27:27.330Z,7.20
2022-11-25T14:30:01.515Z,7.20
2022-11-25T14:32:53.175Z,7.20
2022-11-25T14:35:47.985Z,7.10
2022-11-25T14:38:29.740Z,7.10
2022-11-25T14:41:07.877Z,7.10
2022-11-25T14:43:43.043Z,7.10
2022-11-25T14:46:20.589Z,7.10
2022-11-25T14:49:07.679Z,7.10
2022-11-25T14:51:38.881Z,7.10
2022-11-25T14:54:09.794Z,7.10
2022-11-25T14:56:37.585Z,7.10
2022-11-25T14:59:07.248Z,7.00
2022-11-25T15:01:35.304Z,7.10
2022-11-25T15:04:18.325Z,7.00
2022-11-25T15:06:51.655Z,6.90
2022-11-25T15:09:32.865Z,6.90
2022-11-25T15:12:03.777Z,6.90
2022-11-25T15:14:34.301Z,6.80
2022-11-25T15:17:06.701Z,6.70
2022-11-25T15:19:36.173Z,6.70
2022-11-25T15:22:23.479Z,6.70
2022-11-25T15:27:50.009Z,6.60
2022-11-25T15:30:26.176Z,6.60
2022-11-25T15:32:54.241Z,6.50
2022-11-25T15:35:24.582Z,6.40
2022-11-25T15:37:51.375Z,6.40
2022-11-25T15:40:42.925Z,6.30
2022-11-25T15:43:29.571Z,6.30
2022-11-25T15:46:03.245Z,6.20
2022-11-25T15:48:38.819Z,6.10
2022-11-25T15:51:25.597Z,6.10
2022-11-25T15:54:05.637Z,6.00
2022-11-25T15:56:36.002Z,5.90
2022-11-25T15:59:02.909Z,5.80
2022-11-25T16:01:30.594Z,5.80
2022-11-25T16:04:19.719Z,5.70
2022-11-25T16:06:57.647Z,5.70
2022-11-25T16:09:27.371Z,5.70
2022-11-25T16:12:03.756Z,5.70
2022-11-25T16:14:35.101Z,5.70
2022-11-25T16:17:09.415Z,5.70
2022-11-25T16:19:42.468Z,5.60
2022-11-25T16:22:14.981Z,5.60
2022-11-25T16:24:47.451Z,5.50
2022-11-25T16:27:23.856Z,5.40
2022-11-25T16:29:52.173Z,5.40
2022-11-25T16:32:28.591Z,5.30
2022-11-25T16:34:57.450Z,5.10
2022-11-25T16:37:24.317Z,5.10
2022-11-25T16:39:51.021Z,5.00
2022-11-25T16:42:20.942Z,4.90
2022-11-25T16:44:50.074Z,4.90
2022-11-25T16:47:21.961Z,4.90
2022-11-25T16:49:49.091Z,5.00
2022-11-25T16:52:16.004Z,4.90
2022-11-25T16:54:43.243Z,4.90
2022-11-25T16:57:18.959Z,4.90
2022-11-25T16:59:48.161Z,4.90
2022-11-25T17:02:21.413Z,4.90
2022-11-25T17:04:48.850Z,4.90
2022-11-25T17:07:32.622Z,4.90
2022-11-25T17:10:00.106Z,4.90
2022-11-25T17:12:30.948Z,4.90
2022-11-25T17:15:00.035Z,4.90
2022-11-25T17:17:27.935Z,4.90
2022-11-25T17:19:54.937Z,5.00
2022-11-25T17:22:24.898Z,5.00
2022-11-25T17:24:51.681Z,4.90
2022-11-25T17:27:27.312Z,4.80
2022-11-25T17:29:55.890Z,4.80
2022-11-25T17:32:23.546Z,4.80
2022-11-25T17:34:50.272Z,4.80
2022-11-25T17:37:19.460Z,4.90
2022-11-25T17:39:46.162Z,4.90
2022-11-25T17:42:18.502Z,4.90
2022-11-25T17:44:51.280Z,4.80
2022-11-25T17:47:19.705Z,4.90
2022-11-25T17:49:46.485Z,4.90
2022-11-25T17:52:13.169Z,4.90
2022-11-25T17:54:40.375Z,4.80
2022-11-25T17:57:11.859Z,4.90
2022-11-25T17:59:38.731Z,4.90
2022-11-25T18:02:16.402Z,4.80
2022-11-25T18:04:43.205Z,4.90
2022-11-25T18:07:10.588Z,4.80
2022-11-25T18:09:37.808Z,4.80
2022-11-25T18:12:10.553Z,4.80
2022-11-25T18:14:38.707Z,4.80
2022-11-25T18:17:07.914Z,4.70
2022-11-25T18:19:35.446Z,4.80
2022-11-25T18:22:31.407Z,4.70
2022-11-25T18:24:58.251Z,4.80
2022-11-25T18:27:29.103Z,4.70
2022-11-25T18:29:57.315Z,4.70
2022-11-25T18:32:25.420Z,4.70
2022-11-25T18:34:52.621Z,4.70
2022-11-25T18:37:19.407Z,4.70
2022-11-25T18:39:46.514Z,4.80
2022-11-25T18:42:23.682Z,4.80
2022-11-25T18:44:50.689Z,4.80
2022-11-25T18:47:17.445Z,4.70
2022-11-25T18:49:44.300Z,4.70
2022-11-25T18:52:10.960Z,4.70
2022-11-25T18:54:38.012Z,4.70
2022-11-25T18:57:05.139Z,4.70
2022-11-25T18:59:34.885Z,4.70
2022-11-25T19:02:01.939Z,4.60
2022-11-25T19:04:28.803Z,4.70
2022-11-25T19:06:55.493Z,4.70
2022-11-25T19:09:22.169Z,4.70
2022-11-25T19:11:53.661Z,4.70
2022-11-25T19:14:33.216Z,4.60
2022-11-25T19:17:03.232Z,4.60
2022-11-25T19:19:30.310Z,4.60
2022-11-25T19:21:58.374Z,4.60
2022-11-25T19:24:25.047Z,4.50
2022-11-25T19:26:55.882Z,4.40
2022-11-25T19:29:45.447Z,4.30
2022-11-25T19:32:26.506Z,4.30
2022-11-25T19:35:08.476Z,4.30
2022-11-25T19:37:35.604Z,4.30
2022-11-25T19:40:04.709Z,4.30
2022-11-25T19:42:31.695Z,4.20
2022-11-25T19:44:58.479Z,4.10
2022-11-25T19:47:26.969Z,4.10
2022-11-25T19:49:58.539Z,4.10
2022-11-25T19:52:34.841Z,4.10
2022-11-25T19:55:08.986Z,4.10
2022-11-25T19:57:35.746Z,4.00
2022-11-25T20:00:02.409Z,4.00
2022-11-25T20:02:29.515Z,3.90
2022-11-25T20:04:57.289Z,3.80
2022-11-25T20:07:26.318Z,3.80
2022-11-25T20:09:53.265Z,3.80
2022-11-25T20:12:23.683Z,3.80
2022-11-25T20:14:51.053Z,3.70
2022-11-25T20:17:32.733Z,3.70
2022-11-25T20:20:08.514Z,3.70
2022-11-25T20:22:37.612Z,3.70
2022-11-25T20:25:07.092Z,3.60
2022-11-25T20:27:34.229Z,3.60
2022-11-25T20:30:00.949Z,3.60
2022-11-25T20:32:30.941Z,3.70
2022-11-25T20:34:58.797Z,3.60
2022-11-25T20:37:28.020Z,3.70
2022-11-25T20:39:58.448Z,3.60
2022-11-25T20:42:25.914Z,3.60
2022-11-25T20:44:57.294Z,3.60
2022-11-25T20:47:26.155Z,3.70
2022-11-25T20:49:53.765Z,3.70
2022-11-25T20:52:28.234Z,3.70
2022-11-25T20:54:55.003Z,3.70
2022-11-25T20:57:21.667Z,3.60
2022-11-25T20:59:48.354Z,3.60
2022-11-25T21:02:15.115Z,3.60
2022-11-25T21:04:41.882Z,3.60
2022-11-25T21:07:17.859Z,3.60
2022-11-25T21:09:44.861Z,3.60
2022-11-25T21:12:19.204Z,3.60
2022-11-25T21:14:47.749Z,3.60
2022-11-25T21:17:14.651Z,3.50
2022-11-25T21:19:41.503Z,3.50
2022-11-25T21:22:13.502Z,3.40
2022-11-25T21:24:41.877Z,3.40
2022-11-25T21:27:16.305Z,3.30
2022-11-25T21:29:45.446Z,3.30
2022-11-25T21:32:23.825Z,3.30
2022-11-25T21:34:50.983Z,3.20
2022-11-25T21:37:23.763Z,3.20
2022-11-25T21:39:54.106Z,3.20
2022-11-25T21:42:21.851Z,3.10
2022-11-25T21:44:50.202Z,3.10
2022-11-25T21:47:19.360Z,3.10
2022-11-25T21:49:46.574Z,3.10
2022-11-25T21:52:13.967Z,3.00
2022-11-25T21:54:41.103Z,2.90
2022-11-25T21:57:20.117Z,2.90
2022-11-25T21:59:47.594Z,2.90
2022-11-25T22:02:21.654Z,2.90
2022-11-25T22:04:48.581Z,2.80
2022-11-25T22:07:15.545Z,2.80
2022-11-25T22:09:42.590Z,2.80
2022-11-25T22:12:41.064Z,2.80
2022-11-25T22:15:18.306Z,2.70
2022-11-25T22:17:45.747Z,2.70
2022-11-25T22:20:34.530Z,2.70
2022-11-25T22:23:02.242Z,2.70
2022-11-25T22:25:31.221Z,2.70
2022-11-25T22:27:58.181Z,2.60
2022-11-25T22:30:24.854Z,2.60
2022-11-25T22:33:00.302Z,2.60
2022-11-25T22:35:27.183Z,2.60
2022-11-25T22:37:55.500Z,2.50
2022-11-25T22:40:23.644Z,2.50
2022-11-25T22:42:51.953Z,2.40
2022-11-25T22:45:33.408Z,2.40
2022-11-25T22:48:04.654Z,2.40
2022-11-25T22:50:33.944Z,2.40
2022-11-25T22:53:01.878Z,2.40
2022-11-25T22:55:31.293Z,2.40
2022-11-25T22:58:00.088Z,2.40
2022-11-25T23:00:36.149Z,2.50
2022-11-25T23:03:06.503Z,2.50
2022-11-25T23:05:36.058Z,2.50
2022-11-25T23:08:19.984Z,2.50
2022-11-25T23:10:47.837Z,2.50
2022-11-25T23:13:15.772Z,2.50
2022-11-25T23:15:47.507Z,2.50
2022-11-25T23:18:17.490Z,2.60
2022-11-25T23:20:44.217Z,2.50
2022-11-25T23:23:13.459Z,2.60
2022-11-25T23:25:40.199Z,2.60
2022-11-25T23:28:07.062Z,2.60
2022-11-25T23:30:34.373Z,2.60
2022-11-25T23:33:03.963Z,2.60
2022-11-25T23:35:36.038Z,2.60
2022-11-25T23:38:05.641Z,2.50
2022-11-25T23:40:32.644Z,2.50
2022-11-25T23:42:59.635Z,2.50
2022-11-25T23:45:27.555Z,2.50
2022-11-25T23:47:56.009Z,2.50
2022-11-25T23:50:32.397Z,2.50
2022-11-25T23:53:05.611Z,2.40
2022-11-25T23:55:35.288Z,2.40
2022-11-25T23:58:04.667Z,2.40
